Terminal Aerodrome Forecast
Issued by NWS Lake Charles, LA

Home | Current Version | Previous Version | Text Only | Print | Product List | Glossary On
Versions: 1 2 3 4 5 6 7 8 9 10 11 12 13
000
FTUS44 KLCH 031720
TAFAEX
TAF
KAEX 031720Z 0318/0418 VRB06KT P6SM SCT045
     FM040000 15003KT P6SM SKC
     FM041300 13003KT 6SM BR SKC
     FM041600 12006KT P6SM FEW050=

USA.gov is the U.S. government's official web portal to all federal, state and local government web resources and services.